sensor_id;sensor_type;location;lat;lon;timestamp;P1;durP1;ratioP1;P2;durP2;ratioP2
44985;SDS011;30721;49.380;7.736;2022-12-29T00:01:43;3.67;;;2.13;;
44985;SDS011;30721;49.380;7.736;2022-12-29T00:04:09;3.22;;;2.05;;
44985;SDS011;30721;49.380;7.736;2022-12-29T00:06:36;3.53;;;2.33;;
44985;SDS011;30721;49.380;7.736;2022-12-29T00:09:02;4.85;;;1.80;;
44985;SDS011;30721;49.380;7.736;2022-12-29T00:11:27;4.55;;;1.80;;
44985;SDS011;30721;49.380;7.736;2022-12-29T00:13:53;3.78;;;2.10;;
44985;SDS011;30721;49.380;7.736;2022-12-29T00:16:37;3.60;;;1.55;;
44985;SDS011;30721;49.380;7.736;2022-12-29T00:19:05;3.45;;;1.60;;
44985;SDS011;30721;49.380;7.736;2022-12-29T00:21:31;4.03;;;1.60;;
44985;SDS011;30721;49.380;7.736;2022-12-29T00:24:17;3.70;;;2.23;;
44985;SDS011;30721;49.380;7.736;2022-12-29T00:29:47;4.82;;;1.40;;
44985;SDS011;30721;49.380;7.736;2022-12-29T00:32:31;3.45;;;1.50;;
44985;SDS011;30721;49.380;7.736;2022-12-29T00:37:50;5.28;;;1.40;;
44985;SDS011;30721;49.380;7.736;2022-12-29T00:40:34;2.80;;;1.40;;
44985;SDS011;30721;49.380;7.736;2022-12-29T00:43:18;1.85;;;1.20;;
44985;SDS011;30721;49.380;7.736;2022-12-29T00:46:02;3.17;;;1.05;;
44985;SDS011;30721;49.380;7.736;2022-12-29T00:48:27;2.55;;;1.25;;
44985;SDS011;30721;49.380;7.736;2022-12-29T00:51:11;1.52;;;1.30;;
44985;SDS011;30721;49.380;7.736;2022-12-29T00:53:36;2.78;;;1.15;;
44985;SDS011;30721;49.380;7.736;2022-12-29T00:56:02;2.50;;;1.20;;
44985;SDS011;30721;49.380;7.736;2022-12-29T00:58:28;2.20;;;1.10;;
44985;SDS011;30721;49.380;7.736;2022-12-29T01:01:00;1.80;;;1.13;;
44985;SDS011;30721;49.380;7.736;2022-12-29T01:05:54;1.33;;;1.17;;
44985;SDS011;30721;49.380;7.736;2022-12-29T01:08:19;3.25;;;0.98;;
44985;SDS011;30721;49.380;7.736;2022-12-29T01:10:44;2.65;;;1.30;;
44985;SDS011;30721;49.380;7.736;2022-12-29T01:13:10;3.67;;;1.33;;
44985;SDS011;30721;49.380;7.736;2022-12-29T01:15:35;1.52;;;0.90;;
44985;SDS011;30721;49.380;7.736;2022-12-29T01:18:00;2.45;;;1.05;;
44985;SDS011;30721;49.380;7.736;2022-12-29T01:20:26;3.40;;;1.42;;
44985;SDS011;30721;49.380;7.736;2022-12-29T01:22:53;1.98;;;1.25;;
44985;SDS011;30721;49.380;7.736;2022-12-29T01:25:19;2.33;;;1.30;;
44985;SDS011;30721;49.380;7.736;2022-12-29T01:27:45;1.83;;;1.10;;
44985;SDS011;30721;49.380;7.736;2022-12-29T01:30:10;2.42;;;1.23;;
44985;SDS011;30721;49.380;7.736;2022-12-29T01:32:36;2.60;;;1.20;;
44985;SDS011;30721;49.380;7.736;2022-12-29T01:35:01;2.35;;;1.33;;
44985;SDS011;30721;49.380;7.736;2022-12-29T01:37:27;5.80;;;1.58;;
44985;SDS011;30721;49.380;7.736;2022-12-29T01:39:52;3.17;;;1.58;;
44985;SDS011;30721;49.380;7.736;2022-12-29T01:42:18;2.88;;;1.55;;
44985;SDS011;30721;49.380;7.736;2022-12-29T01:44:52;4.07;;;1.33;;
44985;SDS011;30721;49.380;7.736;2022-12-29T01:47:36;3.28;;;1.70;;
44985;SDS011;30721;49.380;7.736;2022-12-29T01:50:10;2.58;;;1.20;;
44985;SDS011;30721;49.380;7.736;2022-12-29T01:52:40;3.70;;;1.30;;
44985;SDS011;30721;49.380;7.736;2022-12-29T01:55:07;3.40;;;1.55;;
44985;SDS011;30721;49.380;7.736;2022-12-29T01:57:37;3.22;;;1.25;;
44985;SDS011;30721;49.380;7.736;2022-12-29T02:00:12;2.67;;;1.35;;
44985;SDS011;30721;49.380;7.736;2022-12-29T02:02:39;2.03;;;1.38;;
44985;SDS011;30721;49.380;7.736;2022-12-29T02:05:11;5.30;;;1.67;;
44985;SDS011;30721;49.380;7.736;2022-12-29T02:07:41;1.80;;;1.48;;
44985;SDS011;30721;49.380;7.736;2022-12-29T02:10:07;2.00;;;1.73;;
44985;SDS011;30721;49.380;7.736;2022-12-29T02:12:33;2.10;;;1.83;;
44985;SDS011;30721;49.380;7.736;2022-12-29T02:14:59;2.55;;;1.35;;
44985;SDS011;30721;49.380;7.736;2022-12-29T02:31:28;2.30;;;1.45;;
44985;SDS011;30721;49.380;7.736;2022-12-29T02:39:07;2.28;;;1.30;;
44985;SDS011;30721;49.380;7.736;2022-12-29T02:44:26;3.15;;;1.40;;
44985;SDS011;30721;49.380;7.736;2022-12-29T02:46:58;2.15;;;1.50;;
44985;SDS011;30721;49.380;7.736;2022-12-29T02:52:14;2.08;;;1.42;;
44985;SDS011;30721;49.380;7.736;2022-12-29T02:54:42;3.53;;;1.60;;
44985;SDS011;30721;49.380;7.736;2022-12-29T02:59:45;4.70;;;1.55;;
44985;SDS011;30721;49.380;7.736;2022-12-29T03:07:46;2.28;;;1.30;;
44985;SDS011;30721;49.380;7.736;2022-12-29T03:13:05;3.65;;;1.23;;
44985;SDS011;30721;49.380;7.736;2022-12-29T03:21:41;2.83;;;1.40;;
44985;SDS011;30721;49.380;7.736;2022-12-29T03:24:30;2.03;;;1.15;;
44985;SDS011;30721;49.380;7.736;2022-12-29T03:26:59;2.25;;;1.25;;
44985;SDS011;30721;49.380;7.736;2022-12-29T03:29:26;2.38;;;1.67;;
44985;SDS011;30721;49.380;7.736;2022-12-29T03:31:53;3.10;;;0.82;;
44985;SDS011;30721;49.380;7.736;2022-12-29T03:34:20;1.65;;;1.23;;
44985;SDS011;30721;49.380;7.736;2022-12-29T03:36:52;1.17;;;0.93;;
44985;SDS011;30721;49.380;7.736;2022-12-29T03:39:20;1.67;;;1.13;;
44985;SDS011;30721;49.380;7.736;2022-12-29T03:41:47;1.67;;;0.70;;
44985;SDS011;30721;49.380;7.736;2022-12-29T03:44:16;3.35;;;1.20;;
44985;SDS011;30721;49.380;7.736;2022-12-29T03:46:41;2.20;;;1.08;;
44985;SDS011;30721;49.380;7.736;2022-12-29T03:49:06;2.72;;;1.40;;
44985;SDS011;30721;49.380;7.736;2022-12-29T03:51:32;2.38;;;0.95;;
44985;SDS011;30721;49.380;7.736;2022-12-29T03:53:57;2.83;;;1.13;;
44985;SDS011;30721;49.380;7.736;2022-12-29T03:56:22;1.70;;;0.95;;
44985;SDS011;30721;49.380;7.736;2022-12-29T03:58:48;2.92;;;1.50;;
44985;SDS011;30721;49.380;7.736;2022-12-29T04:01:13;3.28;;;1.48;;
44985;SDS011;30721;49.380;7.736;2022-12-29T04:03:39;2.00;;;0.98;;
44985;SDS011;30721;49.380;7.736;2022-12-29T04:06:04;1.10;;;0.82;;
44985;SDS011;30721;49.380;7.736;2022-12-29T04:08:30;2.20;;;0.90;;
44985;SDS011;30721;49.380;7.736;2022-12-29T04:10:55;1.50;;;1.00;;
44985;SDS011;30721;49.380;7.736;2022-12-29T04:13:20;3.00;;;1.35;;
44985;SDS011;30721;49.380;7.736;2022-12-29T04:15:46;1.92;;;0.95;;
44985;SDS011;30721;49.380;7.736;2022-12-29T04:18:11;4.40;;;1.73;;
44985;SDS011;30721;49.380;7.736;2022-12-29T04:20:37;3.63;;;1.23;;
44985;SDS011;30721;49.380;7.736;2022-12-29T04:23:21;1.60;;;1.23;;
44985;SDS011;30721;49.380;7.736;2022-12-29T04:25:46;2.75;;;0.77;;
44985;SDS011;30721;49.380;7.736;2022-12-29T04:28:15;1.65;;;1.23;;
44985;SDS011;30721;49.380;7.736;2022-12-29T04:30:41;2.63;;;1.00;;
44985;SDS011;30721;49.380;7.736;2022-12-29T04:33:07;1.73;;;1.10;;
44985;SDS011;30721;49.380;7.736;2022-12-29T04:35:33;1.77;;;0.80;;
44985;SDS011;30721;49.380;7.736;2022-12-29T04:37:58;2.65;;;1.05;;
44985;SDS011;30721;49.380;7.736;2022-12-29T04:40:24;2.38;;;1.15;;
44985;SDS011;30721;49.380;7.736;2022-12-29T04:42:49;1.75;;;0.80;;
44985;SDS011;30721;49.380;7.736;2022-12-29T04:45:15;2.25;;;0.90;;
44985;SDS011;30721;49.380;7.736;2022-12-29T04:47:40;1.95;;;1.05;;
44985;SDS011;30721;49.380;7.736;2022-12-29T04:50:06;2.42;;;1.20;;
44985;SDS011;30721;49.380;7.736;2022-12-29T04:52:32;1.83;;;1.00;;
44985;SDS011;30721;49.380;7.736;2022-12-29T04:54:58;1.75;;;0.90;;
44985;SDS011;30721;49.380;7.736;2022-12-29T04:57:23;1.67;;;1.10;;
44985;SDS011;30721;49.380;7.736;2022-12-29T04:59:48;2.17;;;1.00;;
44985;SDS011;30721;49.380;7.736;2022-12-29T05:02:14;1.13;;;0.90;;
44985;SDS011;30721;49.380;7.736;2022-12-29T05:04:40;2.78;;;1.30;;
44985;SDS011;30721;49.380;7.736;2022-12-29T05:07:05;2.17;;;1.00;;
44985;SDS011;30721;49.380;7.736;2022-12-29T05:09:31;2.00;;;0.93;;
44985;SDS011;30721;49.380;7.736;2022-12-29T05:11:56;3.90;;;1.33;;
44985;SDS011;30721;49.380;7.736;2022-12-29T05:14:21;1.70;;;1.10;;
44985;SDS011;30721;49.380;7.736;2022-12-29T05:16:47;1.48;;;1.33;;
44985;SDS011;30721;49.380;7.736;2022-12-29T05:19:12;3.60;;;1.33;;
44985;SDS011;30721;49.380;7.736;2022-12-29T05:21:38;1.88;;;1.30;;
44985;SDS011;30721;49.380;7.736;2022-12-29T05:24:03;3.05;;;1.58;;
44985;SDS011;30721;49.380;7.736;2022-12-29T05:26:29;3.00;;;1.40;;
44985;SDS011;30721;49.380;7.736;2022-12-29T05:28:54;3.65;;;1.40;;
44985;SDS011;30721;49.380;7.736;2022-12-29T05:31:19;1.77;;;1.00;;
44985;SDS011;30721;49.380;7.736;2022-12-29T05:33:45;2.65;;;1.00;;
44985;SDS011;30721;49.380;7.736;2022-12-29T05:36:10;1.77;;;1.40;;
44985;SDS011;30721;49.380;7.736;2022-12-29T05:38:35;1.48;;;0.90;;
44985;SDS011;30721;49.380;7.736;2022-12-29T05:41:01;3.15;;;1.63;;
44985;SDS011;30721;49.380;7.736;2022-12-29T05:43:26;3.28;;;1.45;;
44985;SDS011;30721;49.380;7.736;2022-12-29T05:45:52;2.92;;;1.10;;
44985;SDS011;30721;49.380;7.736;2022-12-29T05:48:17;3.03;;;1.20;;
44985;SDS011;30721;49.380;7.736;2022-12-29T05:50:46;3.30;;;1.20;;
44985;SDS011;30721;49.380;7.736;2022-12-29T05:53:12;2.35;;;1.10;;
44985;SDS011;30721;49.380;7.736;2022-12-29T05:55:38;2.78;;;1.40;;
44985;SDS011;30721;49.380;7.736;2022-12-29T05:58:03;3.05;;;1.10;;
44985;SDS011;30721;49.380;7.736;2022-12-29T06:00:29;3.08;;;1.17;;
44985;SDS011;30721;49.380;7.736;2022-12-29T06:02:54;4.90;;;1.25;;
44985;SDS011;30721;49.380;7.736;2022-12-29T06:05:19;3.88;;;1.45;;
44985;SDS011;30721;49.380;7.736;2022-12-29T06:07:45;1.83;;;1.02;;
44985;SDS011;30721;49.380;7.736;2022-12-29T06:10:10;2.22;;;1.00;;
44985;SDS011;30721;49.380;7.736;2022-12-29T06:12:35;1.58;;;1.27;;
44985;SDS011;30721;49.380;7.736;2022-12-29T06:15:01;3.08;;;1.27;;
44985;SDS011;30721;49.380;7.736;2022-12-29T06:17:26;1.92;;;1.20;;
44985;SDS011;30721;49.380;7.736;2022-12-29T06:19:51;2.63;;;1.10;;
44985;SDS011;30721;49.380;7.736;2022-12-29T06:22:17;1.30;;;0.90;;
44985;SDS011;30721;49.380;7.736;2022-12-29T06:24:42;3.15;;;1.48;;
44985;SDS011;30721;49.380;7.736;2022-12-29T06:27:08;1.95;;;1.42;;
44985;SDS011;30721;49.380;7.736;2022-12-29T06:29:33;1.52;;;1.42;;
44985;SDS011;30721;49.380;7.736;2022-12-29T06:32:00;2.55;;;1.33;;
44985;SDS011;30721;49.380;7.736;2022-12-29T06:34:25;1.92;;;1.20;;
44985;SDS011;30721;49.380;7.736;2022-12-29T06:36:50;2.85;;;1.30;;
44985;SDS011;30721;49.380;7.736;2022-12-29T06:39:16;2.63;;;1.40;;
44985;SDS011;30721;49.380;7.736;2022-12-29T06:41:41;3.95;;;1.52;;
44985;SDS011;30721;49.380;7.736;2022-12-29T06:44:17;2.65;;;1.45;;
44985;SDS011;30721;49.380;7.736;2022-12-29T06:46:43;2.25;;;1.00;;
44985;SDS011;30721;49.380;7.736;2022-12-29T06:49:08;3.03;;;1.30;;
44985;SDS011;30721;49.380;7.736;2022-12-29T06:51:33;2.45;;;1.10;;
44985;SDS011;30721;49.380;7.736;2022-12-29T06:53:59;2.80;;;1.50;;
44985;SDS011;30721;49.380;7.736;2022-12-29T06:56:24;2.47;;;1.30;;
44985;SDS011;30721;49.380;7.736;2022-12-29T06:58:49;3.40;;;1.30;;
44985;SDS011;30721;49.380;7.736;2022-12-29T07:01:15;5.10;;;1.48;;
44985;SDS011;30721;49.380;7.736;2022-12-29T07:03:43;2.47;;;1.45;;
44985;SDS011;30721;49.380;7.736;2022-12-29T07:06:08;3.17;;;1.35;;
44985;SDS011;30721;49.380;7.736;2022-12-29T07:08:34;3.03;;;1.90;;
44985;SDS011;30721;49.380;7.736;2022-12-29T07:10:59;3.05;;;1.00;;
44985;SDS011;30721;49.380;7.736;2022-12-29T07:13:25;3.65;;;1.45;;
44985;SDS011;30721;49.380;7.736;2022-12-29T07:15:50;2.25;;;1.30;;
44985;SDS011;30721;49.380;7.736;2022-12-29T07:18:15;3.80;;;1.40;;
44985;SDS011;30721;49.380;7.736;2022-12-29T07:20:41;4.32;;;1.83;;
44985;SDS011;30721;49.380;7.736;2022-12-29T07:23:06;3.28;;;1.70;;
44985;SDS011;30721;49.380;7.736;2022-12-29T07:25:32;2.08;;;1.45;;
44985;SDS011;30721;49.380;7.736;2022-12-29T07:27:57;2.45;;;1.75;;
44985;SDS011;30721;49.380;7.736;2022-12-29T07:30:22;4.32;;;1.70;;
44985;SDS011;30721;49.380;7.736;2022-12-29T07:32:48;4.20;;;1.58;;
44985;SDS011;30721;49.380;7.736;2022-12-29T07:35:13;6.90;;;2.63;;
44985;SDS011;30721;49.380;7.736;2022-12-29T07:37:38;3.92;;;1.88;;
44985;SDS011;30721;49.380;7.736;2022-12-29T07:40:04;2.45;;;1.55;;
44985;SDS011;30721;49.380;7.736;2022-12-29T07:42:30;2.15;;;1.65;;
44985;SDS011;30721;49.380;7.736;2022-12-29T07:44:56;3.92;;;2.08;;
44985;SDS011;30721;49.380;7.736;2022-12-29T07:47:21;2.42;;;1.48;;
44985;SDS011;30721;49.380;7.736;2022-12-29T07:49:46;3.75;;;2.33;;
44985;SDS011;30721;49.380;7.736;2022-12-29T07:52:12;3.42;;;1.60;;
44985;SDS011;30721;49.380;7.736;2022-12-29T07:54:37;2.72;;;1.90;;
44985;SDS011;30721;49.380;7.736;2022-12-29T07:57:03;3.85;;;2.20;;
44985;SDS011;30721;49.380;7.736;2022-12-29T07:59:29;3.47;;;2.03;;
44985;SDS011;30721;49.380;7.736;2022-12-29T08:01:55;3.92;;;2.00;;
44985;SDS011;30721;49.380;7.736;2022-12-29T08:04:20;3.33;;;1.90;;
44985;SDS011;30721;49.380;7.736;2022-12-29T08:06:46;2.47;;;1.90;;
44985;SDS011;30721;49.380;7.736;2022-12-29T08:09:11;3.83;;;1.90;;
44985;SDS011;30721;49.380;7.736;2022-12-29T08:11:37;3.53;;;1.88;;
44985;SDS011;30721;49.380;7.736;2022-12-29T08:14:03;4.25;;;2.17;;
44985;SDS011;30721;49.380;7.736;2022-12-29T08:16:28;3.15;;;1.67;;
44985;SDS011;30721;49.380;7.736;2022-12-29T08:18:54;4.47;;;1.90;;
44985;SDS011;30721;49.380;7.736;2022-12-29T08:21:19;4.40;;;1.92;;
44985;SDS011;30721;49.380;7.736;2022-12-29T08:23:44;3.38;;;1.90;;
44985;SDS011;30721;49.380;7.736;2022-12-29T08:26:10;3.55;;;2.00;;
44985;SDS011;30721;49.380;7.736;2022-12-29T08:28:36;4.50;;;2.00;;
44985;SDS011;30721;49.380;7.736;2022-12-29T08:31:02;3.50;;;2.53;;
44985;SDS011;30721;49.380;7.736;2022-12-29T08:33:29;3.33;;;2.22;;
44985;SDS011;30721;49.380;7.736;2022-12-29T08:35:59;3.35;;;2.70;;
44985;SDS011;30721;49.380;7.736;2022-12-29T08:38:26;4.80;;;2.22;;
44985;SDS011;30721;49.380;7.736;2022-12-29T08:40:52;4.22;;;2.28;;
44985;SDS011;30721;49.380;7.736;2022-12-29T08:43:17;4.47;;;2.47;;
44985;SDS011;30721;49.380;7.736;2022-12-29T08:45:43;4.22;;;2.03;;
44985;SDS011;30721;49.380;7.736;2022-12-29T08:48:08;5.40;;;2.30;;
44985;SDS011;30721;49.380;7.736;2022-12-29T08:50:34;5.63;;;3.35;;
44985;SDS011;30721;49.380;7.736;2022-12-29T08:52:59;4.40;;;2.30;;
44985;SDS011;30721;49.380;7.736;2022-12-29T08:55:25;3.15;;;2.22;;
44985;SDS011;30721;49.380;7.736;2022-12-29T08:57:50;4.45;;;2.20;;
44985;SDS011;30721;49.380;7.736;2022-12-29T09:00:17;4.72;;;2.17;;
44985;SDS011;30721;49.380;7.736;2022-12-29T09:02:43;2.88;;;2.25;;
44985;SDS011;30721;49.380;7.736;2022-12-29T09:05:08;5.07;;;2.10;;
44985;SDS011;30721;49.380;7.736;2022-12-29T09:07:34;4.03;;;2.65;;
44985;SDS011;30721;49.380;7.736;2022-12-29T09:10:00;4.78;;;2.72;;
44985;SDS011;30721;49.380;7.736;2022-12-29T09:12:26;4.00;;;2.38;;
44985;SDS011;30721;49.380;7.736;2022-12-29T09:14:51;3.08;;;1.88;;
44985;SDS011;30721;49.380;7.736;2022-12-29T09:17:16;3.35;;;2.50;;
44985;SDS011;30721;49.380;7.736;2022-12-29T09:20:00;4.28;;;2.53;;
44985;SDS011;30721;49.380;7.736;2022-12-29T09:22:26;3.28;;;2.08;;
44985;SDS011;30721;49.380;7.736;2022-12-29T09:24:51;5.47;;;2.50;;
44985;SDS011;30721;49.380;7.736;2022-12-29T09:27:16;3.10;;;2.13;;
44985;SDS011;30721;49.380;7.736;2022-12-29T09:29:42;5.43;;;2.40;;
44985;SDS011;30721;49.380;7.736;2022-12-29T09:32:07;5.03;;;2.60;;
44985;SDS011;30721;49.380;7.736;2022-12-29T09:34:32;3.85;;;2.47;;
44985;SDS011;30721;49.380;7.736;2022-12-29T09:36:58;6.18;;;2.70;;
44985;SDS011;30721;49.380;7.736;2022-12-29T09:39:23;3.10;;;2.40;;
44985;SDS011;30721;49.380;7.736;2022-12-29T09:44:42;3.63;;;2.20;;
44985;SDS011;30721;49.380;7.736;2022-12-29T09:47:28;4.15;;;2.72;;
44985;SDS011;30721;49.380;7.736;2022-12-29T09:49:56;5.70;;;2.58;;
44985;SDS011;30721;49.380;7.736;2022-12-29T09:52:31;4.82;;;2.40;;
44985;SDS011;30721;49.380;7.736;2022-12-29T09:55:10;4.32;;;2.53;;
44985;SDS011;30721;49.380;7.736;2022-12-29T09:57:53;4.22;;;2.70;;
44985;SDS011;30721;49.380;7.736;2022-12-29T10:00:20;3.35;;;2.30;;
44985;SDS011;30721;49.380;7.736;2022-12-29T10:11:53;3.22;;;2.25;;
44985;SDS011;30721;49.380;7.736;2022-12-29T10:22:27;3.45;;;1.70;;
44985;SDS011;30721;49.380;7.736;2022-12-29T10:25:00;3.33;;;1.63;;
44985;SDS011;30721;49.380;7.736;2022-12-29T10:27:30;2.20;;;1.27;;
44985;SDS011;30721;49.380;7.736;2022-12-29T10:29:57;2.92;;;1.35;;
44985;SDS011;30721;49.380;7.736;2022-12-29T10:35:20;1.33;;;1.02;;
44985;SDS011;30721;49.380;7.736;2022-12-29T10:37:58;2.15;;;1.30;;
44985;SDS011;30721;49.380;7.736;2022-12-29T10:43:17;2.92;;;1.30;;
44985;SDS011;30721;49.380;7.736;2022-12-29T10:45:49;2.63;;;1.30;;
44985;SDS011;30721;49.380;7.736;2022-12-29T10:48:25;3.13;;;1.15;;
44985;SDS011;30721;49.380;7.736;2022-12-29T10:50:54;3.00;;;0.93;;
44985;SDS011;30721;49.380;7.736;2022-12-29T10:53:22;1.85;;;1.10;;
44985;SDS011;30721;49.380;7.736;2022-12-29T10:55:50;4.68;;;1.95;;
44985;SDS011;30721;49.380;7.736;2022-12-29T10:58:16;2.88;;;1.55;;
44985;SDS011;30721;49.380;7.736;2022-12-29T11:00:42;1.35;;;1.15;;
44985;SDS011;30721;49.380;7.736;2022-12-29T11:03:12;2.90;;;1.40;;
44985;SDS011;30721;49.380;7.736;2022-12-29T11:08:33;2.78;;;0.98;;
44985;SDS011;30721;49.380;7.736;2022-12-29T11:11:02;3.70;;;1.17;;
44985;SDS011;30721;49.380;7.736;2022-12-29T11:13:32;2.85;;;1.02;;
44985;SDS011;30721;49.380;7.736;2022-12-29T11:15:59;1.92;;;1.30;;
44985;SDS011;30721;49.380;7.736;2022-12-29T11:20:59;3.50;;;1.63;;
44985;SDS011;30721;49.380;7.736;2022-12-29T11:26:07;5.00;;;1.52;;
44985;SDS011;30721;49.380;7.736;2022-12-29T11:28:32;3.33;;;1.25;;
44985;SDS011;30721;49.380;7.736;2022-12-29T11:31:02;2.30;;;1.10;;
44985;SDS011;30721;49.380;7.736;2022-12-29T11:33:28;1.50;;;1.00;;
44985;SDS011;30721;49.380;7.736;2022-12-29T11:36:05;2.53;;;1.00;;
44985;SDS011;30721;49.380;7.736;2022-12-29T11:38:34;1.95;;;0.80;;
44985;SDS011;30721;49.380;7.736;2022-12-29T11:41:01;1.83;;;0.90;;
44985;SDS011;30721;49.380;7.736;2022-12-29T11:43:32;1.48;;;0.70;;
44985;SDS011;30721;49.380;7.736;2022-12-29T11:45:59;3.67;;;0.60;;
44985;SDS011;30721;49.380;7.736;2022-12-29T11:48:29;1.58;;;0.50;;
44985;SDS011;30721;49.380;7.736;2022-12-29T11:50:58;1.17;;;0.80;;
44985;SDS011;30721;49.380;7.736;2022-12-29T11:53:28;2.75;;;0.98;;
44985;SDS011;30721;49.380;7.736;2022-12-29T11:55:59;1.85;;;0.60;;
44985;SDS011;30721;49.380;7.736;2022-12-29T11:58:34;1.40;;;0.68;;
44985;SDS011;30721;49.380;7.736;2022-12-29T12:03:53;2.05;;;0.75;;
44985;SDS011;30721;49.380;7.736;2022-12-29T12:06:25;1.88;;;1.10;;
44985;SDS011;30721;49.380;7.736;2022-12-29T12:09:21;3.22;;;0.98;;
44985;SDS011;30721;49.380;7.736;2022-12-29T12:11:56;4.18;;;0.90;;
44985;SDS011;30721;49.380;7.736;2022-12-29T12:16:59;4.25;;;1.65;;
44985;SDS011;30721;49.380;7.736;2022-12-29T12:19:40;1.80;;;0.90;;
44985;SDS011;30721;49.380;7.736;2022-12-29T12:22:29;1.45;;;1.17;;
44985;SDS011;30721;49.380;7.736;2022-12-29T12:24:59;2.28;;;1.10;;
44985;SDS011;30721;49.380;7.736;2022-12-29T12:27:36;4.63;;;0.75;;
44985;SDS011;30721;49.380;7.736;2022-12-29T12:32:48;4.57;;;0.98;;
44985;SDS011;30721;49.380;7.736;2022-12-29T12:35:24;1.33;;;0.75;;
44985;SDS011;30721;49.380;7.736;2022-12-29T12:38:16;1.63;;;0.60;;
44985;SDS011;30721;49.380;7.736;2022-12-29T13:07:50;1.98;;;0.70;;
44985;SDS011;30721;49.380;7.736;2022-12-29T13:10:32;1.23;;;0.60;;
44985;SDS011;30721;49.380;7.736;2022-12-29T13:15:46;1.05;;;0.70;;
44985;SDS011;30721;49.380;7.736;2022-12-29T13:31:15;2.22;;;0.73;;
44985;SDS011;30721;49.380;7.736;2022-12-29T13:33:51;1.33;;;0.55;;
44985;SDS011;30721;49.380;7.736;2022-12-29T13:38:49;1.63;;;0.55;;
44985;SDS011;30721;49.380;7.736;2022-12-29T13:41:41;1.20;;;0.63;;
44985;SDS011;30721;49.380;7.736;2022-12-29T13:44:11;1.35;;;0.57;;
44985;SDS011;30721;49.380;7.736;2022-12-29T13:46:42;0.95;;;0.40;;
44985;SDS011;30721;49.380;7.736;2022-12-29T13:51:37;3.63;;;0.40;;
44985;SDS011;30721;49.380;7.736;2022-12-29T13:59:57;2.38;;;0.40;;
44985;SDS011;30721;49.380;7.736;2022-12-29T14:02:27;1.02;;;0.52;;
44985;SDS011;30721;49.380;7.736;2022-12-29T14:07:26;3.33;;;0.82;;
44985;SDS011;30721;49.380;7.736;2022-12-29T14:09:56;0.88;;;0.40;;
44985;SDS011;30721;49.380;7.736;2022-12-29T14:15:04;3.58;;;0.50;;
44985;SDS011;30721;49.380;7.736;2022-12-29T14:17:32;1.85;;;0.40;;
44985;SDS011;30721;49.380;7.736;2022-12-29T14:19:57;2.10;;;0.80;;
44985;SDS011;30721;49.380;7.736;2022-12-29T14:22:24;2.00;;;0.45;;
44985;SDS011;30721;49.380;7.736;2022-12-29T14:24:50;3.20;;;0.50;;
44985;SDS011;30721;49.380;7.736;2022-12-29T14:34:57;3.63;;;0.80;;
44985;SDS011;30721;49.380;7.736;2022-12-29T14:37:25;5.68;;;0.60;;
44985;SDS011;30721;49.380;7.736;2022-12-29T14:40:02;1.67;;;0.32;;
44985;SDS011;30721;49.380;7.736;2022-12-29T14:42:47;1.30;;;0.52;;
44985;SDS011;30721;49.380;7.736;2022-12-29T14:47:39;1.02;;;0.30;;
44985;SDS011;30721;49.380;7.736;2022-12-29T14:50:51;2.85;;;0.70;;
44985;SDS011;30721;49.380;7.736;2022-12-29T14:53:02;3.37;;;0.40;;
44985;SDS011;30721;49.380;7.736;2022-12-29T14:58:18;3.90;;;0.70;;
44985;SDS011;30721;49.380;7.736;2022-12-29T15:00:46;4.20;;;0.60;;
44985;SDS011;30721;49.380;7.736;2022-12-29T15:05:44;2.38;;;0.30;;
44985;SDS011;30721;49.380;7.736;2022-12-29T15:08:12;2.35;;;0.73;;
44985;SDS011;30721;49.380;7.736;2022-12-29T15:10:40;2.30;;;0.40;;
44985;SDS011;30721;49.380;7.736;2022-12-29T15:13:13;2.50;;;0.50;;
44985;SDS011;30721;49.380;7.736;2022-12-29T15:15:46;1.35;;;0.60;;
44985;SDS011;30721;49.380;7.736;2022-12-29T15:18:12;2.67;;;0.90;;
44985;SDS011;30721;49.380;7.736;2022-12-29T15:20:59;1.80;;;0.40;;
44985;SDS011;30721;49.380;7.736;2022-12-29T15:23:26;2.28;;;0.95;;
44985;SDS011;30721;49.380;7.736;2022-12-29T15:25:57;2.45;;;0.50;;
44985;SDS011;30721;49.380;7.736;2022-12-29T15:28:24;3.70;;;1.27;;
44985;SDS011;30721;49.380;7.736;2022-12-29T15:30:54;4.95;;;1.38;;
44985;SDS011;30721;49.380;7.736;2022-12-29T15:33:22;1.98;;;0.77;;
44985;SDS011;30721;49.380;7.736;2022-12-29T15:35:50;1.50;;;0.77;;
44985;SDS011;30721;49.380;7.736;2022-12-29T15:38:24;4.13;;;0.60;;
44985;SDS011;30721;49.380;7.736;2022-12-29T15:40:53;5.15;;;0.70;;
44985;SDS011;30721;49.380;7.736;2022-12-29T15:46:01;7.95;;;1.00;;
44985;SDS011;30721;49.380;7.736;2022-12-29T15:48:27;4.10;;;0.52;;
44985;SDS011;30721;49.380;7.736;2022-12-29T15:50:52;2.20;;;0.57;;
44985;SDS011;30721;49.380;7.736;2022-12-29T15:53:19;3.22;;;0.80;;
44985;SDS011;30721;49.380;7.736;2022-12-29T15:55:53;3.15;;;1.02;;
44985;SDS011;30721;49.380;7.736;2022-12-29T15:58:21;3.15;;;0.50;;
44985;SDS011;30721;49.380;7.736;2022-12-29T16:00:55;2.10;;;0.50;;
44985;SDS011;30721;49.380;7.736;2022-12-29T16:03:22;3.90;;;1.17;;
44985;SDS011;30721;49.380;7.736;2022-12-29T16:05:53;3.38;;;0.85;;
44985;SDS011;30721;49.380;7.736;2022-12-29T16:13:57;4.65;;;0.75;;
44985;SDS011;30721;49.380;7.736;2022-12-29T16:16:27;2.35;;;0.60;;
44985;SDS011;30721;49.380;7.736;2022-12-29T16:18:54;2.47;;;1.00;;
44985;SDS011;30721;49.380;7.736;2022-12-29T16:21:33;2.63;;;0.52;;
44985;SDS011;30721;49.380;7.736;2022-12-29T16:24:00;2.25;;;0.85;;
44985;SDS011;30721;49.380;7.736;2022-12-29T16:26:28;3.40;;;0.52;;
44985;SDS011;30721;49.380;7.736;2022-12-29T16:28:54;3.40;;;1.88;;
44985;SDS011;30721;49.380;7.736;2022-12-29T16:31:23;4.43;;;1.10;;
44985;SDS011;30721;49.380;7.736;2022-12-29T16:36:52;6.32;;;0.80;;
44985;SDS011;30721;49.380;7.736;2022-12-29T16:45:00;3.72;;;0.73;;
44985;SDS011;30721;49.380;7.736;2022-12-29T16:47:39;3.55;;;0.93;;
44985;SDS011;30721;49.380;7.736;2022-12-29T16:50:26;2.28;;;0.73;;
44985;SDS011;30721;49.380;7.736;2022-12-29T16:52:50;2.30;;;0.68;;
44985;SDS011;30721;49.380;7.736;2022-12-29T16:55:16;3.33;;;0.80;;
44985;SDS011;30721;49.380;7.736;2022-12-29T16:57:43;6.15;;;1.00;;
44985;SDS011;30721;49.380;7.736;2022-12-29T17:00:19;3.92;;;1.42;;
44985;SDS011;30721;49.380;7.736;2022-12-29T17:02:46;3.90;;;0.60;;
44985;SDS011;30721;49.380;7.736;2022-12-29T17:05:12;2.17;;;0.77;;
44985;SDS011;30721;49.380;7.736;2022-12-29T17:07:38;2.17;;;1.45;;
44985;SDS011;30721;49.380;7.736;2022-12-29T17:10:04;4.18;;;0.80;;
44985;SDS011;30721;49.380;7.736;2022-12-29T17:12:30;3.00;;;0.90;;
44985;SDS011;30721;49.380;7.736;2022-12-29T17:15:00;2.08;;;0.95;;
44985;SDS011;30721;49.380;7.736;2022-12-29T17:20:06;5.38;;;1.42;;
44985;SDS011;30721;49.380;7.736;2022-12-29T17:22:32;4.00;;;0.68;;
44985;SDS011;30721;49.380;7.736;2022-12-29T17:24:58;4.90;;;1.25;;
44985;SDS011;30721;49.380;7.736;2022-12-29T17:27:38;4.43;;;1.42;;
44985;SDS011;30721;49.380;7.736;2022-12-29T17:32:35;5.40;;;1.20;;
44985;SDS011;30721;49.380;7.736;2022-12-29T17:35:00;6.93;;;2.20;;
44985;SDS011;30721;49.380;7.736;2022-12-29T17:37:28;5.45;;;1.45;;
44985;SDS011;30721;49.380;7.736;2022-12-29T17:39:55;2.05;;;0.70;;
44985;SDS011;30721;49.380;7.736;2022-12-29T17:42:21;4.43;;;0.98;;
44985;SDS011;30721;49.380;7.736;2022-12-29T17:44:46;5.85;;;0.90;;
44985;SDS011;30721;49.380;7.736;2022-12-29T17:47:12;3.20;;;0.88;;
44985;SDS011;30721;49.380;7.736;2022-12-29T17:49:39;5.28;;;1.20;;
44985;SDS011;30721;49.380;7.736;2022-12-29T17:52:05;5.07;;;0.80;;
44985;SDS011;30721;49.380;7.736;2022-12-29T17:54:30;6.70;;;1.17;;
44985;SDS011;30721;49.380;7.736;2022-12-29T17:56:56;6.55;;;1.13;;
44985;SDS011;30721;49.380;7.736;2022-12-29T17:59:21;3.63;;;0.93;;
44985;SDS011;30721;49.380;7.736;2022-12-29T18:01:47;7.57;;;1.50;;
44985;SDS011;30721;49.380;7.736;2022-12-29T18:04:14;4.53;;;0.85;;